createdAt,value
2022-12-09T00:00:07.557Z,4.46
2022-12-09T00:02:30.191Z,4.38
2022-12-09T00:04:51.891Z,4.43
2022-12-09T00:07:13.375Z,4.37
2022-12-09T00:09:35.027Z,4.36
2022-12-09T00:11:56.638Z,4.36
2022-12-09T00:14:18.430Z,4.39
2022-12-09T00:16:40.352Z,4.34
2022-12-09T00:19:01.858Z,4.39
2022-12-09T00:21:26.279Z,4.35
2022-12-09T00:23:48.615Z,4.38
2022-12-09T00:26:10.933Z,4.38
2022-12-09T00:28:32.898Z,4.37
2022-12-09T00:30:54.666Z,4.40
2022-12-09T00:33:16.449Z,4.42
2022-12-09T00:35:37.874Z,4.44
2022-12-09T00:37:59.543Z,4.43
2022-12-09T00:40:21.223Z,4.43
2022-12-09T00:42:42.738Z,4.44
2022-12-09T00:45:04.705Z,4.46
2022-12-09T00:47:26.246Z,4.40
2022-12-09T00:49:48.200Z,4.14
2022-12-09T00:52:09.684Z,4.15
2022-12-09T00:54:31.417Z,4.18
2022-12-09T00:56:53.102Z,4.24
2022-12-09T00:59:14.737Z,4.25
2022-12-09T01:01:36.431Z,4.28
2022-12-09T01:03:58.437Z,4.31
2022-12-09T01:06:24.429Z,4.32
2022-12-09T01:08:48.808Z,4.32
2022-12-09T01:11:39.698Z,4.35
2022-12-09T01:14:03.090Z,4.29
2022-12-09T01:16:26.736Z,4.25
2022-12-09T01:18:48.712Z,4.24
2022-12-09T01:21:10.266Z,4.18
2022-12-09T01:23:31.980Z,4.13
2022-12-09T01:25:53.436Z,4.13
2022-12-09T01:28:15.149Z,4.21
2022-12-09T01:30:36.687Z,4.19
2022-12-09T01:32:58.262Z,4.24
2022-12-09T01:35:19.904Z,4.24
2022-12-09T01:37:41.516Z,4.26
2022-12-09T01:40:06.677Z,4.31
2022-12-09T01:42:28.415Z,4.31
2022-12-09T01:45:21.542Z,4.26
2022-12-09T01:47:43.144Z,4.08
2022-12-09T01:50:05.821Z,4.00
2022-12-09T01:52:27.566Z,4.14
2022-12-09T01:54:52.233Z,4.17
2022-12-09T01:57:14.605Z,4.16
2022-12-09T01:59:36.742Z,4.19
2022-12-09T02:02:01.151Z,4.20
2022-12-09T02:04:23.093Z,4.22
2022-12-09T02:06:45.079Z,4.23
2022-12-09T02:09:07.393Z,4.24
2022-12-09T02:11:36.524Z,4.24
2022-12-09T02:14:12.962Z,4.10
2022-12-09T02:16:51.310Z,4.14
2022-12-09T02:19:34.945Z,4.19
2022-12-09T02:22:00.217Z,4.19
2022-12-09T02:24:41.936Z,4.23
2022-12-09T02:27:21.831Z,4.24
2022-12-09T02:30:02.175Z,4.26
2022-12-09T02:32:38.383Z,4.19
2022-12-09T02:35:09.648Z,4.19
2022-12-09T02:37:42.618Z,4.22
2022-12-09T02:40:20.176Z,4.23
2022-12-09T02:42:43.709Z,4.25
2022-12-09T02:45:07.712Z,4.18
2022-12-09T02:47:32.854Z,4.06
2022-12-09T02:50:00.756Z,4.03
2022-12-09T02:52:23.190Z,4.10
2022-12-09T02:54:45.288Z,4.12
2022-12-09T02:57:28.189Z,4.16
2022-12-09T02:59:49.677Z,4.16
2022-12-09T03:02:12.303Z,4.13
2022-12-09T03:04:34.112Z,4.18
2022-12-09T03:07:03.973Z,4.20
2022-12-09T03:09:30.156Z,4.23
2022-12-09T03:11:53.112Z,4.08
2022-12-09T03:14:22.995Z,4.14
2022-12-09T03:17:13.842Z,4.18
2022-12-09T03:19:41.008Z,4.17
2022-12-09T03:22:08.058Z,4.19
2022-12-09T03:24:36.606Z,4.20
2022-12-09T03:27:03.651Z,4.23
2022-12-09T03:29:29.246Z,4.21
2022-12-09T03:31:52.771Z,4.21
2022-12-09T03:34:21.407Z,4.18
2022-12-09T03:36:46.501Z,4.14
2022-12-09T03:39:12.413Z,4.15
2022-12-09T03:41:34.825Z,4.20
2022-12-09T03:44:04.576Z,4.21
2022-12-09T03:46:29.255Z,4.20
2022-12-09T03:48:50.896Z,4.19
2022-12-09T03:51:19.177Z,4.18
2022-12-09T03:53:50.402Z,4.04
2022-12-09T03:56:22.356Z,4.03
2022-12-09T03:58:46.536Z,4.03
2022-12-09T04:01:09.649Z,4.04
2022-12-09T04:03:32.905Z,3.93
2022-12-09T04:05:54.729Z,3.83
2022-12-09T04:08:16.737Z,3.79
2022-12-09T04:10:38.249Z,3.87
2022-12-09T04:12:59.733Z,3.90
2022-12-09T04:15:21.455Z,3.88
2022-12-09T04:17:43.222Z,3.72
2022-12-09T04:20:06.300Z,3.71
2022-12-09T04:22:29.570Z,3.84
2022-12-09T04:24:51.284Z,3.85
2022-12-09T04:27:13.253Z,3.89
2022-12-09T04:29:35.035Z,3.90
2022-12-09T04:31:56.611Z,3.91
2022-12-09T04:34:18.206Z,3.77
2022-12-09T04:36:39.785Z,3.76
2022-12-09T04:39:01.271Z,3.80
2022-12-09T04:41:23.425Z,3.84
2022-12-09T04:43:44.975Z,3.84
2022-12-09T04:46:11.212Z,3.84
2022-12-09T04:48:33.062Z,3.84
2022-12-09T04:50:55.093Z,3.84
2022-12-09T04:53:16.879Z,3.89
2022-12-09T04:55:38.393Z,3.93
2022-12-09T04:58:00.094Z,3.82
2022-12-09T05:00:21.758Z,3.70
2022-12-09T05:02:43.711Z,3.75
2022-12-09T05:05:05.833Z,3.77
2022-12-09T05:07:28.998Z,3.75
2022-12-09T05:09:50.883Z,3.53
2022-12-09T05:12:12.628Z,3.42
2022-12-09T05:14:34.480Z,3.41
2022-12-09T05:16:56.223Z,3.50
2022-12-09T05:19:18.067Z,3.51
2022-12-09T05:21:40.029Z,3.61
2022-12-09T05:24:03.110Z,3.60
2022-12-09T05:26:25.082Z,3.58
2022-12-09T05:28:46.867Z,3.59
2022-12-09T05:31:13.229Z,3.63
2022-12-09T05:33:35.327Z,3.64
2022-12-09T05:35:57.407Z,3.44
2022-12-09T05:38:19.034Z,3.47
2022-12-09T05:40:40.876Z,3.54
2022-12-09T05:43:02.369Z,3.58
2022-12-09T05:45:23.984Z,3.62
2022-12-09T05:47:45.640Z,3.57
2022-12-09T05:50:08.899Z,3.66
2022-12-09T05:52:30.758Z,3.63
2022-12-09T05:54:52.610Z,3.67
2022-12-09T05:57:14.419Z,3.70
2022-12-09T05:59:36.075Z,3.71
2022-12-09T06:01:57.975Z,3.69
2022-12-09T06:04:19.586Z,3.76
2022-12-09T06:06:41.568Z,3.61
2022-12-09T06:09:03.732Z,3.43
2022-12-09T06:11:26.084Z,3.41
2022-12-09T06:13:49.863Z,3.29
2022-12-09T06:16:12.893Z,3.35
2022-12-09T06:18:34.887Z,3.42
2022-12-09T06:20:57.281Z,3.33
2022-12-09T06:23:18.919Z,3.25
2022-12-09T06:25:45.301Z,3.30
2022-12-09T06:28:06.919Z,3.36
2022-12-09T06:30:28.549Z,3.36
2022-12-09T06:32:50.465Z,3.31
2022-12-09T06:35:12.397Z,3.40
2022-12-09T06:37:34.360Z,3.43
2022-12-09T06:39:56.038Z,3.51
2022-12-09T06:42:17.946Z,3.30
2022-12-09T06:44:40.254Z,2.96
2022-12-09T06:47:02.499Z,3.16
2022-12-09T06:49:24.244Z,3.27
2022-12-09T06:51:47.869Z,3.34
2022-12-09T06:54:10.373Z,3.41
2022-12-09T06:56:32.695Z,3.45
2022-12-09T06:58:54.762Z,3.48
2022-12-09T07:01:22.702Z,3.55
2022-12-09T07:03:48.003Z,3.59
2022-12-09T07:06:31.854Z,3.62
2022-12-09T07:08:54.852Z,3.63
2022-12-09T07:11:16.735Z,3.58
2022-12-09T07:13:38.736Z,3.61
2022-12-09T07:16:00.557Z,3.60
2022-12-09T07:18:22.413Z,3.59
2022-12-09T07:20:44.605Z,3.48
2022-12-09T07:23:06.480Z,3.42
2022-12-09T07:25:28.018Z,3.52
2022-12-09T07:27:50.067Z,3.57
2022-12-09T07:30:11.742Z,3.64
2022-12-09T07:32:33.236Z,3.58
2022-12-09T07:34:54.816Z,3.63
2022-12-09T07:37:16.411Z,3.63
2022-12-09T07:39:38.242Z,3.62
2022-12-09T07:42:00.246Z,3.62
2022-12-09T07:44:22.872Z,3.68
2022-12-09T07:46:44.827Z,3.69
2022-12-09T07:49:06.569Z,3.70
2022-12-09T07:51:29.614Z,3.73
2022-12-09T07:53:51.721Z,3.66
2022-12-09T07:56:15.811Z,3.69
2022-12-09T07:58:38.366Z,3.67
2022-12-09T08:01:14.742Z,3.66
2022-12-09T08:03:36.869Z,3.61
2022-12-09T08:05:58.658Z,3.63
2022-12-09T08:08:20.517Z,3.63
2022-12-09T08:10:44.680Z,3.69
2022-12-09T08:13:06.735Z,3.69
2022-12-09T08:15:28.603Z,3.69
2022-12-09T08:17:50.246Z,3.67
2022-12-09T08:20:13.221Z,3.54
2022-12-09T08:22:35.648Z,3.36
2022-12-09T08:24:57.407Z,3.33
2022-12-09T08:27:19.252Z,3.29
2022-12-09T08:29:41.494Z,3.30
2022-12-09T08:32:03.795Z,3.31
2022-12-09T08:34:25.607Z,3.24
2022-12-09T08:36:47.196Z,3.38
2022-12-09T08:39:09.281Z,3.47
2022-12-09T08:41:37.754Z,3.46
2022-12-09T08:43:59.991Z,3.49
2022-12-09T08:46:21.881Z,3.68
2022-12-09T08:48:43.763Z,3.76
2022-12-09T08:51:07.357Z,3.69
2022-12-09T08:53:29.021Z,3.69
2022-12-09T08:55:50.928Z,3.71
2022-12-09T08:58:12.812Z,3.69
2022-12-09T09:00:34.447Z,3.90
2022-12-09T09:02:56.440Z,3.87
2022-12-09T09:05:18.737Z,3.89
2022-12-09T09:07:40.965Z,3.84
2022-12-09T09:10:04.430Z,3.90
2022-12-09T09:12:26.192Z,4.03
2022-12-09T09:14:47.724Z,3.99
2022-12-09T09:17:09.323Z,3.97
2022-12-09T09:19:31.783Z,4.07
2022-12-09T09:21:55.372Z,4.13
2022-12-09T09:24:19.905Z,4.36
2022-12-09T09:26:42.779Z,4.31
2022-12-09T09:29:04.776Z,4.32
2022-12-09T09:31:26.791Z,4.26
2022-12-09T09:33:49.120Z,4.36
2022-12-09T09:36:14.959Z,4.36
2022-12-09T09:38:36.782Z,4.42
2022-12-09T09:41:00.800Z,4.50
2022-12-09T09:43:29.094Z,4.50
2022-12-09T09:45:53.628Z,4.48
2022-12-09T09:48:20.022Z,4.46
2022-12-09T09:50:53.727Z,4.36
2022-12-09T09:53:33.491Z,4.33
2022-12-09T09:56:00.113Z,4.41
2022-12-09T09:58:43.528Z,4.42
2022-12-09T10:01:08.774Z,4.48
2022-12-09T10:03:49.347Z,4.54
2022-12-09T10:06:55.167Z,4.46
2022-12-09T10:09:22.844Z,4.57
2022-12-09T10:12:18.891Z,4.58
2022-12-09T10:14:43.809Z,4.62
2022-12-09T10:17:35.250Z,4.69
2022-12-09T10:20:21.226Z,4.75
2022-12-09T10:22:50.605Z,4.76
2022-12-09T10:25:18.024Z,4.82
2022-12-09T10:27:47.912Z,4.85
2022-12-09T10:30:17.988Z,4.86
2022-12-09T10:32:40.674Z,4.80
2022-12-09T10:35:14.289Z,4.89
2022-12-09T10:37:36.824Z,4.91
2022-12-09T10:40:07.900Z,4.95
2022-12-09T10:42:53.619Z,4.92
2022-12-09T10:45:15.135Z,4.89
2022-12-09T10:47:37.973Z,4.86
2022-12-09T10:49:59.802Z,4.89
2022-12-09T10:52:44.808Z,4.96
2022-12-09T10:55:07.383Z,4.94
2022-12-09T10:57:30.523Z,4.99
2022-12-09T11:00:19.951Z,4.70
2022-12-09T11:02:50.688Z,4.35
2022-12-09T11:05:27.910Z,3.95
2022-12-09T11:07:52.304Z,3.82
2022-12-09T11:10:20.703Z,3.73
2022-12-09T11:12:44.122Z,3.63
2022-12-09T11:15:23.963Z,3.63
2022-12-09T11:17:56.894Z,3.75
2022-12-09T11:20:24.425Z,3.72
2022-12-09T11:22:58.050Z,3.72
2022-12-09T11:25:29.593Z,3.70
2022-12-09T11:27:55.377Z,3.53
2022-12-09T11:30:18.897Z,3.70
2022-12-09T11:33:12.301Z,3.66
2022-12-09T11:35:43.011Z,3.49
2022-12-09T11:38:27.318Z,3.43
2022-12-09T11:41:00.363Z,3.49
2022-12-09T11:43:31.015Z,3.71
2022-12-09T11:45:52.476Z,3.88
2022-12-09T11:48:37.312Z,3.89
2022-12-09T11:51:01.952Z,3.90
2022-12-09T11:53:32.337Z,3.63
2022-12-09T11:56:07.068Z,3.52
2022-12-09T11:58:53.601Z,3.62
2022-12-09T12:01:30.223Z,3.79
2022-12-09T12:04:07.226Z,3.78
2022-12-09T12:06:47.041Z,3.69
2022-12-09T12:09:39.311Z,3.56
2022-12-09T12:12:09.627Z,3.58
2022-12-09T12:14:31.536Z,3.64
2022-12-09T12:17:08.605Z,3.45
2022-12-09T12:19:35.735Z,3.39
2022-12-09T12:22:22.171Z,3.39
2022-12-09T12:25:18.316Z,3.38
2022-12-09T12:28:01.506Z,3.73
2022-12-09T12:30:40.150Z,3.98
2022-12-09T12:34:00.374Z,4.14
2022-12-09T12:36:07.934Z,4.31
2022-12-09T12:39:08.790Z,4.39
2022-12-09T12:41:39.093Z,4.52
2022-12-09T12:44:34.592Z,4.61
2022-12-09T12:47:08.130Z,4.69
2022-12-09T12:49:54.088Z,4.71
2022-12-09T12:52:54.924Z,4.77
2022-12-09T12:55:21.415Z,4.91
2022-12-09T12:57:55.233Z,4.84
2022-12-09T13:00:21.484Z,4.93
2022-12-09T13:03:09.260Z,4.82
2022-12-09T13:05:37.554Z,4.61
2022-12-09T13:08:05.671Z,4.43
2022-12-09T13:10:36.499Z,4.11
2022-12-09T13:13:01.666Z,4.17
2022-12-09T13:15:43.363Z,4.43
2022-12-09T13:18:15.529Z,4.46
2022-12-09T13:20:46.076Z,4.63
2022-12-09T13:23:46.181Z,4.74
2022-12-09T13:26:23.522Z,4.77
2022-12-09T13:28:54.135Z,4.69
2022-12-09T13:31:20.071Z,4.65
2022-12-09T13:33:50.735Z,4.76
2022-12-09T13:36:36.226Z,4.82
2022-12-09T13:38:58.212Z,4.69
2022-12-09T13:41:51.780Z,4.63
2022-12-09T13:44:18.839Z,4.63
2022-12-09T13:46:42.871Z,4.64
2022-12-09T13:49:17.961Z,4.58
2022-12-09T13:51:49.090Z,4.58
2022-12-09T13:54:16.237Z,4.40
2022-12-09T13:56:37.807Z,4.21
2022-12-09T13:59:18.185Z,4.35
2022-12-09T14:01:42.437Z,4.13
2022-12-09T14:04:22.557Z,4.24
2022-12-09T14:06:46.746Z,4.21
2022-12-09T14:09:20.580Z,4.31
2022-12-09T14:12:04.825Z,4.03
2022-12-09T14:14:26.230Z,4.23
2022-12-09T14:16:47.822Z,4.30
2022-12-09T14:19:24.589Z,4.20
2022-12-09T14:22:18.633Z,4.12
2022-12-09T14:24:40.808Z,4.18
2022-12-09T14:27:05.230Z,4.17
2022-12-09T14:29:43.943Z,4.24
2022-12-09T14:32:17.843Z,4.36
2022-12-09T14:34:43.048Z,4.44
2022-12-09T14:37:30.517Z,4.41
2022-12-09T14:40:00.016Z,4.44
2022-12-09T14:42:31.434Z,4.53
2022-12-09T14:45:11.460Z,4.57
2022-12-09T14:47:39.524Z,4.53
2022-12-09T14:50:12.478Z,4.62
2022-12-09T14:52:34.462Z,4.64
2022-12-09T14:55:02.110Z,4.67
2022-12-09T14:57:30.690Z,4.54
2022-12-09T14:59:55.621Z,4.26
2022-12-09T15:02:24.787Z,4.07
2022-12-09T15:04:48.299Z,4.04
2022-12-09T15:07:11.174Z,4.03
2022-12-09T15:09:32.638Z,3.99
2022-12-09T15:11:54.139Z,3.98
2022-12-09T15:14:27.686Z,4.04
2022-12-09T15:16:50.888Z,4.06
2022-12-09T15:19:37.017Z,4.15
2022-12-09T15:22:00.842Z,4.23
2022-12-09T15:24:22.520Z,4.29
2022-12-09T15:27:04.270Z,4.34
2022-12-09T15:29:31.145Z,4.37
2022-12-09T15:31:53.691Z,4.42
2022-12-09T15:34:23.200Z,4.43
2022-12-09T15:36:56.202Z,4.37
2022-12-09T15:39:32.404Z,4.42
2022-12-09T15:42:08.102Z,4.39
2022-12-09T15:44:38.714Z,4.29
2022-12-09T15:47:08.452Z,4.22
2022-12-09T15:49:38.607Z,4.10
2022-12-09T15:52:02.684Z,4.01
2022-12-09T15:54:30.440Z,4.08
2022-12-09T15:56:57.490Z,4.15
2022-12-09T15:59:22.262Z,4.20
2022-12-09T16:01:56.374Z,4.04
2022-12-09T16:04:26.071Z,4.04
2022-12-09T16:06:48.911Z,4.07
2022-12-09T16:09:20.645Z,4.14
2022-12-09T16:11:48.464Z,4.15
2022-12-09T16:14:11.375Z,4.12
2022-12-09T16:16:43.120Z,4.14
2022-12-09T16:19:04.657Z,4.23
2022-12-09T16:21:35.101Z,4.19
2022-12-09T16:24:06.956Z,4.28
2022-12-09T16:26:35.319Z,4.28
2022-12-09T16:28:59.695Z,4.34
2022-12-09T16:31:22.428Z,4.34
2022-12-09T16:33:48.579Z,4.37
2022-12-09T16:36:19.387Z,4.39
2022-12-09T16:38:41.514Z,4.32
2022-12-09T16:41:12.413Z,4.36
2022-12-09T16:43:35.160Z,4.34
2022-12-09T16:46:34.317Z,4.37
2022-12-09T16:48:59.285Z,4.39
2022-12-09T16:51:25.232Z,4.38
2022-12-09T16:53:49.995Z,4.40
2022-12-09T16:56:27.293Z,4.39
2022-12-09T16:58:49.060Z,4.38
2022-12-09T17:01:17.044Z,4.44
2022-12-09T17:03:42.920Z,4.43
2022-12-09T17:06:05.377Z,4.39
2022-12-09T17:08:27.059Z,4.39
2022-12-09T17:10:48.702Z,4.37
2022-12-09T17:13:12.416Z,4.39
2022-12-09T17:15:34.026Z,4.43
2022-12-09T17:17:55.513Z,4.44
2022-12-09T17:20:17.195Z,4.44
2022-12-09T17:22:38.836Z,4.45
2022-12-09T17:25:00.322Z,4.41
2022-12-09T17:27:21.805Z,4.40
2022-12-09T17:29:46.138Z,4.39
2022-12-09T17:32:07.666Z,4.38
2022-12-09T17:34:29.211Z,4.41
2022-12-09T17:36:50.694Z,4.39
2022-12-09T17:39:15.631Z,4.40
2022-12-09T17:41:37.130Z,4.37
2022-12-09T17:44:00.691Z,4.19
2022-12-09T17:46:22.182Z,4.07
2022-12-09T17:48:43.765Z,4.03
2022-12-09T17:51:10.723Z,4.10
2022-12-09T17:53:32.187Z,4.13
2022-12-09T17:55:53.620Z,4.17
2022-12-09T17:58:15.192Z,4.18
2022-12-09T18:00:38.883Z,4.20
2022-12-09T18:03:00.684Z,4.18
2022-12-09T18:05:22.187Z,4.06
2022-12-09T18:07:44.210Z,3.94
2022-12-09T18:10:06.719Z,4.05
2022-12-09T18:12:28.264Z,4.10
2022-12-09T18:14:49.798Z,4.08
2022-12-09T18:17:11.369Z,4.06
2022-12-09T18:19:35.174Z,4.10
2022-12-09T18:21:57.407Z,4.05
2022-12-09T18:24:18.893Z,4.10
2022-12-09T18:26:42.168Z,4.13
2022-12-09T18:29:05.020Z,4.13
2022-12-09T18:31:26.686Z,3.88
2022-12-09T18:33:48.278Z,3.76
2022-12-09T18:36:13.190Z,3.82
2022-12-09T18:38:34.643Z,3.91
2022-12-09T18:41:01.873Z,3.99
2022-12-09T18:43:23.339Z,4.03
2022-12-09T18:45:44.822Z,4.06
2022-12-09T18:48:06.303Z,3.99
2022-12-09T18:50:27.741Z,3.89
2022-12-09T18:52:49.195Z,3.91
2022-12-09T18:55:10.763Z,3.92
2022-12-09T18:57:33.036Z,3.91
2022-12-09T18:59:54.501Z,3.97
2022-12-09T19:02:17.101Z,4.00
2022-12-09T19:04:38.667Z,4.02
2022-12-09T19:07:01.312Z,3.84
2022-12-09T19:09:33.347Z,3.95
2022-12-09T19:11:54.834Z,3.89
2022-12-09T19:14:18.104Z,3.89
2022-12-09T19:16:39.997Z,3.97
2022-12-09T19:19:08.716Z,4.03
2022-12-09T19:21:31.316Z,4.04
2022-12-09T19:23:54.689Z,4.07
2022-12-09T19:26:19.177Z,4.10
2022-12-09T19:28:46.503Z,4.13
2022-12-09T19:31:22.831Z,4.14
2022-12-09T19:33:44.434Z,4.08
2022-12-09T19:36:06.403Z,4.13
2022-12-09T19:38:27.864Z,4.10
2022-12-09T19:40:49.281Z,4.03
2022-12-09T19:43:11.181Z,3.85
2022-12-09T19:45:33.457Z,3.70
2022-12-09T19:47:54.921Z,3.69
2022-12-09T19:50:16.581Z,3.83
2022-12-09T19:52:38.044Z,3.78
2022-12-09T19:55:00.014Z,3.80
2022-12-09T19:57:22.430Z,3.87
2022-12-09T19:59:43.956Z,3.89
2022-12-09T20:02:07.175Z,3.87
2022-12-09T20:07:12.188Z,3.81
2022-12-09T20:09:33.660Z,3.77
2022-12-09T20:11:55.165Z,3.73
2022-12-09T20:14:16.664Z,3.76
2022-12-09T20:16:38.457Z,3.59
2022-12-09T20:19:01.642Z,3.64
2022-12-09T20:21:25.008Z,3.59
2022-12-09T20:23:47.419Z,3.55
2022-12-09T20:26:11.865Z,3.38
2022-12-09T20:28:34.179Z,3.29
2022-12-09T20:30:55.619Z,3.22
2022-12-09T20:33:17.071Z,3.48
2022-12-09T20:35:38.582Z,3.27
2022-12-09T20:38:00.052Z,3.42
2022-12-09T20:40:21.491Z,3.52
2022-12-09T20:42:42.930Z,3.49
2022-12-09T20:45:05.621Z,3.53
2022-12-09T20:47:27.144Z,3.58
2022-12-09T20:49:48.595Z,3.65
2022-12-09T20:52:10.116Z,3.60
2022-12-09T20:54:31.632Z,3.41
2022-12-09T20:56:53.715Z,3.41
2022-12-09T20:59:15.165Z,3.48
2022-12-09T21:01:37.364Z,3.38
2022-12-09T21:04:00.654Z,3.26
2022-12-09T21:06:25.243Z,3.31
2022-12-09T21:08:47.380Z,3.33
2022-12-09T21:11:15.161Z,3.29
2022-12-09T21:13:45.038Z,3.29
2022-12-09T21:16:09.321Z,3.19
2022-12-09T21:18:30.901Z,3.18
2022-12-09T21:20:55.775Z,3.18
2022-12-09T21:23:34.202Z,3.19
2022-12-09T21:25:56.203Z,3.28
2022-12-09T21:28:17.728Z,3.41
2022-12-09T21:30:39.141Z,3.54
2022-12-09T21:33:00.675Z,3.47
2022-12-09T21:35:22.097Z,3.51
2022-12-09T21:37:43.514Z,3.59
2022-12-09T21:40:05.709Z,3.43
2022-12-09T21:42:27.446Z,3.43
2022-12-09T21:44:48.916Z,3.41
2022-12-09T21:47:10.333Z,3.40
2022-12-09T21:49:33.430Z,3.39
2022-12-09T21:51:54.884Z,3.44
2022-12-09T21:54:16.425Z,3.36
2022-12-09T21:56:38.007Z,3.47
2022-12-09T21:59:00.399Z,3.42
2022-12-09T22:01:24.361Z,3.42
2022-12-09T22:03:47.067Z,3.31
2022-12-09T22:06:10.390Z,3.38
2022-12-09T22:08:31.967Z,3.25
2022-12-09T22:10:53.740Z,3.30
2022-12-09T22:13:15.229Z,3.26
2022-12-09T22:15:36.766Z,3.23
2022-12-09T22:17:58.335Z,3.18
2022-12-09T22:20:54.608Z,3.11
2022-12-09T22:23:01.705Z,3.10
2022-12-09T22:25:23.165Z,3.14
2022-12-09T22:27:44.742Z,2.96
2022-12-09T22:30:07.037Z,3.08
2022-12-09T22:32:30.498Z,3.08
2022-12-09T22:34:53.821Z,2.94
2022-12-09T22:37:42.475Z,3.13
2022-12-09T22:39:59.412Z,3.29
2022-12-09T22:42:20.854Z,3.17
2022-12-09T22:44:42.324Z,3.13
2022-12-09T22:47:04.072Z,3.23
2022-12-09T22:49:25.537Z,3.20
2022-12-09T22:51:47.774Z,3.35
2022-12-09T22:54:10.191Z,3.22
2022-12-09T22:56:32.342Z,3.09
2022-12-09T22:58:54.337Z,3.29
2022-12-09T23:01:25.720Z,3.24
2022-12-09T23:03:47.475Z,3.20
2022-12-09T23:06:09.913Z,3.31
2022-12-09T23:08:31.461Z,3.42
2022-12-09T23:10:52.918Z,3.32
2022-12-09T23:13:14.367Z,3.39
2022-12-09T23:15:35.967Z,3.45
2022-12-09T23:17:57.471Z,3.45
2022-12-09T23:20:18.924Z,3.56
2022-12-09T23:22:40.363Z,3.47
2022-12-09T23:25:01.811Z,3.42
2022-12-09T23:27:23.248Z,3.35
2022-12-09T23:29:45.765Z,3.35
2022-12-09T23:32:07.201Z,3.36
2022-12-09T23:34:28.678Z,3.33
2022-12-09T23:36:50.165Z,3.27
2022-12-09T23:39:15.031Z,3.25
2022-12-09T23:41:40.864Z,3.31
2022-12-09T23:44:02.529Z,3.42
2022-12-09T23:46:27.168Z,3.52
2022-12-09T23:48:50.240Z,3.70
2022-12-09T23:51:23.903Z,3.59
2022-12-09T23:53:47.420Z,3.41
2022-12-09T23:56:14.514Z,3.29
2022-12-09T23:58:35.970Z,3.23
